createdAt,value
2017-11-10T00:01:44.110Z,62.28
2017-11-10T00:04:10.065Z,62.16
2017-11-10T00:06:36.028Z,62.33
2017-11-10T00:09:01.982Z,62.17
2017-11-10T00:11:27.937Z,62.08
2017-11-10T00:13:53.931Z,61.80
2017-11-10T00:16:19.922Z,61.36
2017-11-10T00:18:45.863Z,61.11
2017-11-10T00:21:11.827Z,61.19
2017-11-10T00:23:37.786Z,61.00
2017-11-10T00:26:03.766Z,61.23
2017-11-10T00:28:29.751Z,61.25
2017-11-10T00:30:55.704Z,61.14
2017-11-10T00:33:21.696Z,61.05
2017-11-10T00:35:47.683Z,61.00
2017-11-10T00:38:13.640Z,61.20
2017-11-10T00:40:39.613Z,60.85
2017-11-10T00:43:05.555Z,60.74
2017-11-10T00:45:31.540Z,60.50
2017-11-10T00:47:57.510Z,60.18
2017-11-10T00:50:23.437Z,59.92
2017-11-10T00:52:49.376Z,59.92
2017-11-10T00:55:15.334Z,60.06
2017-11-10T00:57:41.287Z,60.20
2017-11-10T01:00:07.231Z,60.10
2017-11-10T01:02:33.202Z,59.78
2017-11-10T01:04:59.171Z,60.09
2017-11-10T01:07:25.140Z,59.92
2017-11-10T01:09:51.102Z,59.88
2017-11-10T01:12:17.042Z,59.87
2017-11-10T01:14:43.113Z,59.85
2017-11-10T01:17:09.071Z,59.48
2017-11-10T01:19:35.024Z,59.52
2017-11-10T01:22:00.960Z,59.02
2017-11-10T01:24:26.912Z,58.56
2017-11-10T01:26:52.855Z,58.62
2017-11-10T01:29:18.812Z,58.64
2017-11-10T01:31:44.747Z,57.81
2017-11-10T01:34:10.686Z,57.55
2017-11-10T01:36:36.623Z,57.45
2017-11-10T01:39:02.602Z,57.59
2017-11-10T01:41:28.550Z,57.32
2017-11-10T01:43:54.513Z,56.77
2017-11-10T01:46:20.473Z,56.77
2017-11-10T01:48:46.416Z,56.71
2017-11-10T01:51:12.388Z,56.61
2017-11-10T01:53:38.343Z,56.04
2017-11-10T01:56:04.323Z,56.46
2017-11-10T01:58:30.292Z,55.96
2017-11-10T02:00:56.228Z,55.93
2017-11-10T02:03:22.208Z,56.38
2017-11-10T02:05:48.155Z,56.37
2017-11-10T02:08:14.164Z,56.41
2017-11-10T02:10:40.141Z,56.45
2017-11-10T02:13:06.085Z,56.42
2017-11-10T02:15:32.113Z,56.59
2017-11-10T02:17:58.130Z,56.67
2017-11-10T02:20:24.105Z,57.02
2017-11-10T02:22:50.068Z,56.99
2017-11-10T02:25:16.005Z,56.85
2017-11-10T02:27:41.987Z,57.14
2017-11-10T02:30:07.936Z,57.04
2017-11-10T02:32:33.904Z,57.21
2017-11-10T02:34:59.898Z,57.16
2017-11-10T02:37:25.851Z,57.18
2017-11-10T02:39:51.798Z,57.16
2017-11-10T02:42:17.780Z,57.03
2017-11-10T02:44:43.736Z,57.36
2017-11-10T02:47:09.681Z,57.12
2017-11-10T02:49:35.676Z,57.37
2017-11-10T02:52:01.659Z,57.76
2017-11-10T02:54:27.621Z,57.48
2017-11-10T02:56:53.571Z,57.49
2017-11-10T02:59:19.531Z,57.51
2017-11-10T03:01:45.497Z,57.54
2017-11-10T03:04:11.444Z,57.37
2017-11-10T03:06:37.392Z,57.46
2017-11-10T03:09:03.348Z,57.57
2017-11-10T03:11:29.330Z,57.36
2017-11-10T03:13:55.279Z,57.40
2017-11-10T03:16:21.276Z,57.30
2017-11-10T03:18:47.241Z,57.69
2017-11-10T03:23:44.372Z,57.77
2017-11-10T03:26:10.382Z,57.89
2017-11-10T03:28:36.338Z,58.00
2017-11-10T03:31:02.298Z,57.89
2017-11-10T03:33:28.261Z,58.04
2017-11-10T03:35:54.200Z,58.33
2017-11-10T03:38:20.144Z,58.29
2017-11-10T03:40:46.095Z,58.16
2017-11-10T03:43:12.060Z,58.68
2017-11-10T03:45:38.018Z,58.40
2017-11-10T03:48:03.962Z,58.32
2017-11-10T03:50:29.928Z,58.40
2017-11-10T03:52:55.908Z,58.37
2017-11-10T03:55:21.866Z,58.26
2017-11-10T03:57:47.848Z,58.25
2017-11-10T04:00:13.832Z,58.26
2017-11-10T04:02:39.776Z,58.18
2017-11-10T04:05:05.718Z,57.98
2017-11-10T04:07:31.686Z,57.82
2017-11-10T04:09:57.633Z,57.93
2017-11-10T04:12:23.588Z,57.91
2017-11-10T04:14:49.524Z,57.60
2017-11-10T04:17:15.489Z,57.85
2017-11-10T04:19:41.495Z,57.79
2017-11-10T04:22:07.470Z,57.80
2017-11-10T04:24:33.538Z,57.72
2017-11-10T04:26:59.564Z,57.72
2017-11-10T04:29:25.632Z,57.79
2017-11-10T04:31:51.604Z,57.55
2017-11-10T04:34:17.566Z,57.83
2017-11-10T04:36:43.650Z,57.87
2017-11-10T04:39:09.581Z,57.66
2017-11-10T04:41:35.594Z,58.22
2017-11-10T04:44:01.662Z,57.75
2017-11-10T04:46:27.660Z,57.75
2017-11-10T04:48:53.666Z,57.71
2017-11-10T04:51:19.628Z,57.79
2017-11-10T04:53:45.601Z,57.80
2017-11-10T04:56:11.572Z,57.68
2017-11-10T04:58:37.523Z,57.67
2017-11-10T05:01:03.464Z,57.53
2017-11-10T05:03:29.420Z,57.29
2017-11-10T05:05:55.366Z,57.36
2017-11-10T05:08:21.320Z,57.33
2017-11-10T05:10:47.325Z,57.00
2017-11-10T05:13:13.298Z,57.23
2017-11-10T05:15:39.291Z,57.23
2017-11-10T05:18:05.252Z,57.30
2017-11-10T05:20:31.218Z,57.43
2017-11-10T05:22:57.158Z,57.39
2017-11-10T05:25:23.141Z,57.19
2017-11-10T05:27:49.109Z,57.43
2017-11-10T05:30:15.082Z,57.36
2017-11-10T05:32:41.043Z,57.95
2017-11-10T05:35:07.012Z,57.72
2017-11-10T05:37:32.976Z,57.57
2017-11-10T05:39:58.957Z,57.50
2017-11-10T05:42:24.916Z,57.25
2017-11-10T05:44:50.873Z,57.80
2017-11-10T05:47:16.839Z,57.80
2017-11-10T05:49:42.788Z,57.94
2017-11-10T05:52:08.731Z,58.35
2017-11-10T05:54:34.717Z,58.00
2017-11-10T05:57:00.685Z,57.77
2017-11-10T05:59:26.668Z,57.74
2017-11-10T06:01:52.669Z,57.96
2017-11-10T06:04:18.623Z,58.00
2017-11-10T06:06:44.600Z,58.06
2017-11-10T06:09:10.583Z,58.14
2017-11-10T06:11:36.560Z,58.37
2017-11-10T06:14:02.546Z,58.30
2017-11-10T06:16:28.527Z,58.54
2017-11-10T06:18:54.475Z,58.63
2017-11-10T06:21:20.412Z,58.71
2017-11-10T06:23:46.396Z,58.64
2017-11-10T06:26:12.346Z,58.67
2017-11-10T06:28:38.316Z,59.06
2017-11-10T06:31:04.291Z,59.00
2017-11-10T06:33:30.252Z,59.45
2017-11-10T06:35:56.222Z,59.71
2017-11-10T06:38:22.160Z,59.68
2017-11-10T06:40:48.110Z,60.06
2017-11-10T06:43:14.072Z,59.90
2017-11-10T06:45:40.045Z,59.92
2017-11-10T06:48:06.002Z,59.94
2017-11-10T06:50:31.948Z,60.15
2017-11-10T06:52:57.912Z,61.87
2017-11-10T06:55:23.896Z,63.53
2017-11-10T06:57:50.041Z,63.33
2017-11-10T07:00:16.017Z,62.24
2017-11-10T07:02:42.004Z,62.60
2017-11-10T07:05:07.963Z,62.04
2017-11-10T07:07:33.913Z,61.91
2017-11-10T07:09:59.931Z,61.50
2017-11-10T07:12:25.887Z,61.33
2017-11-10T07:14:51.907Z,61.28
2017-11-10T07:17:17.844Z,61.16
2017-11-10T07:19:43.794Z,61.06
2017-11-10T07:22:09.742Z,60.47
2017-11-10T07:24:35.842Z,60.17
2017-11-10T07:27:01.816Z,60.47
2017-11-10T07:29:27.781Z,60.02
2017-11-10T07:31:53.773Z,60.28
2017-11-10T07:34:19.788Z,60.20
2017-11-10T07:36:45.788Z,60.38
2017-11-10T07:39:11.744Z,59.87
2017-11-10T07:41:37.726Z,60.15
2017-11-10T07:44:03.672Z,59.70
2017-11-10T07:46:29.618Z,59.64
2017-11-10T07:48:55.598Z,60.06
2017-11-10T07:51:21.596Z,59.40
2017-11-10T07:53:47.542Z,59.47
2017-11-10T07:56:13.498Z,59.66
2017-11-10T07:58:39.483Z,59.12
2017-11-10T08:01:05.472Z,59.48
2017-11-10T08:03:31.440Z,59.48
2017-11-10T08:05:57.408Z,59.38
2017-11-10T08:08:23.390Z,59.55
2017-11-10T08:10:49.365Z,59.93
2017-11-10T08:13:15.337Z,59.70
2017-11-10T08:15:41.276Z,59.85
2017-11-10T08:18:07.293Z,59.29
2017-11-10T08:20:33.312Z,59.58
2017-11-10T08:22:59.285Z,60.27
2017-11-10T08:25:25.278Z,59.78
2017-11-10T08:27:51.222Z,59.91
2017-11-10T08:30:17.205Z,60.35
2017-11-10T08:32:43.214Z,60.41
2017-11-10T08:35:09.200Z,60.33
2017-11-10T08:37:35.181Z,60.19
2017-11-10T08:40:01.130Z,60.20
2017-11-10T08:42:27.124Z,60.19
2017-11-10T08:44:53.102Z,59.93
2017-11-10T08:47:19.088Z,60.11
2017-11-10T08:49:45.047Z,59.68
2017-11-10T08:52:11.004Z,59.90
2017-11-10T08:54:36.936Z,59.35
2017-11-10T08:57:02.937Z,59.73
2017-11-10T08:59:29.000Z,60.19
2017-11-10T09:01:54.973Z,60.12
2017-11-10T09:04:20.928Z,59.86
2017-11-10T09:06:46.910Z,59.59
2017-11-10T09:09:12.898Z,59.36
2017-11-10T09:11:38.894Z,59.57
2017-11-10T09:14:04.836Z,59.89
2017-11-10T09:16:30.806Z,59.95
2017-11-10T09:18:56.802Z,59.74
2017-11-10T09:21:22.788Z,59.72
2017-11-10T09:23:48.762Z,59.60
2017-11-10T09:26:14.747Z,59.97
2017-11-10T09:28:40.704Z,59.64
2017-11-10T09:31:06.695Z,59.90
2017-11-10T09:33:32.668Z,59.78
2017-11-10T09:35:58.642Z,59.64
2017-11-10T09:38:24.578Z,59.93
2017-11-10T09:40:50.534Z,60.05
2017-11-10T09:43:16.532Z,60.16
2017-11-10T09:45:42.502Z,60.24
2017-11-10T09:48:08.480Z,60.20
2017-11-10T09:50:34.455Z,60.28
2017-11-10T09:53:00.413Z,59.92
2017-11-10T09:55:26.375Z,59.97
2017-11-10T09:57:52.343Z,60.16
2017-11-10T10:00:18.330Z,60.13
2017-11-10T10:02:44.308Z,60.11
2017-11-10T10:05:10.265Z,60.29
2017-11-10T10:07:36.293Z,59.92
2017-11-10T10:10:02.257Z,60.01
2017-11-10T10:12:28.210Z,60.15
2017-11-10T10:14:54.200Z,60.14
2017-11-10T10:17:20.168Z,59.62
2017-11-10T10:19:46.175Z,59.82
2017-11-10T10:22:12.145Z,59.39
2017-11-10T10:24:38.115Z,59.74
2017-11-10T10:27:04.147Z,59.61
2017-11-10T10:29:30.149Z,59.46
2017-11-10T10:31:56.109Z,59.88
2017-11-10T10:34:22.071Z,59.49
2017-11-10T10:36:48.037Z,59.60
2017-11-10T10:39:14.015Z,59.19
2017-11-10T10:41:39.978Z,59.50
2017-11-10T10:44:05.961Z,58.93
2017-11-10T10:46:31.942Z,59.30
2017-11-10T10:48:57.881Z,58.80
2017-11-10T10:51:23.836Z,59.01
2017-11-10T10:53:49.791Z,58.77
2017-11-10T10:56:15.783Z,58.88
2017-11-10T10:58:41.741Z,58.65
2017-11-10T11:01:07.690Z,58.61
2017-11-10T11:03:33.666Z,58.76
2017-11-10T11:05:59.634Z,58.64
2017-11-10T11:08:25.634Z,58.73
2017-11-10T11:10:51.615Z,58.80
2017-11-10T11:13:17.597Z,58.48
2017-11-10T11:15:43.561Z,58.49
2017-11-10T11:18:09.526Z,58.56
2017-11-10T11:20:35.627Z,58.31
2017-11-10T11:23:01.593Z,57.92
2017-11-10T11:25:27.622Z,58.32
2017-11-10T11:27:53.636Z,57.98
2017-11-10T11:30:19.572Z,58.28
2017-11-10T11:32:45.554Z,58.19
2017-11-10T11:35:11.521Z,58.09
2017-11-10T11:37:37.527Z,57.99
2017-11-10T11:40:03.468Z,57.75
2017-11-10T11:42:29.452Z,58.23
2017-11-10T11:44:55.474Z,57.83
2017-11-10T11:47:21.454Z,57.76
2017-11-10T11:49:47.433Z,57.89
2017-11-10T11:52:13.524Z,57.97
2017-11-10T11:54:39.477Z,58.27
2017-11-10T11:57:05.459Z,58.36
2017-11-10T11:59:31.464Z,57.97
2017-11-10T12:01:57.448Z,58.33
2017-11-10T12:04:23.388Z,57.73
2017-11-10T12:06:49.368Z,57.63
2017-11-10T12:09:15.358Z,57.65
2017-11-10T12:11:41.330Z,57.59
2017-11-10T12:14:07.347Z,57.90
2017-11-10T12:16:33.308Z,57.12
2017-11-10T12:18:59.314Z,57.65
2017-11-10T12:21:25.318Z,57.40
2017-11-10T12:23:51.272Z,57.42
2017-11-10T12:26:17.225Z,57.85
2017-11-10T12:28:43.173Z,57.33
2017-11-10T12:31:09.180Z,57.35
2017-11-10T12:33:35.150Z,57.54
2017-11-10T12:36:01.092Z,57.45
2017-11-10T12:38:27.084Z,57.13
2017-11-10T12:40:53.071Z,56.57
2017-11-10T12:43:19.063Z,56.77
2017-11-10T12:45:45.096Z,57.08
2017-11-10T12:48:11.107Z,56.22
2017-11-10T12:50:37.046Z,56.50
2017-11-10T12:53:03.089Z,56.52
2017-11-10T12:55:29.061Z,56.05
2017-11-10T12:57:55.176Z,56.10
2017-11-10T13:00:21.113Z,56.16
2017-11-10T13:02:47.075Z,55.65
2017-11-10T13:05:13.029Z,55.56
2017-11-10T13:07:39.109Z,55.94
2017-11-10T13:10:05.251Z,56.36
2017-11-10T13:12:31.265Z,55.92
2017-11-10T13:14:57.279Z,55.87
2017-11-10T13:17:23.344Z,55.67
2017-11-10T13:19:49.331Z,55.81
2017-11-10T13:22:15.297Z,56.05
2017-11-10T13:24:41.286Z,56.21
2017-11-10T13:27:07.245Z,56.17
2017-11-10T13:29:33.248Z,56.13
2017-11-10T13:31:59.207Z,56.30
2017-11-10T13:34:25.205Z,56.59
2017-11-10T13:36:51.150Z,57.00
2017-11-10T13:39:17.156Z,56.10
2017-11-10T13:41:43.097Z,56.22
2017-11-10T13:44:09.083Z,56.14
2017-11-10T13:46:35.037Z,56.02
2017-11-10T13:49:01.092Z,56.00
2017-11-10T13:51:27.055Z,55.88
2017-11-10T13:53:53.065Z,55.87
2017-11-10T13:56:19.101Z,55.82
2017-11-10T13:58:45.238Z,56.01
2017-11-10T14:01:11.251Z,55.84
2017-11-10T14:03:37.240Z,56.24
2017-11-10T14:06:03.183Z,56.03
2017-11-10T14:08:29.179Z,56.29
2017-11-10T14:10:55.221Z,56.57
2017-11-10T14:13:21.188Z,56.47
2017-11-10T14:15:47.238Z,56.16
2017-11-10T14:18:13.183Z,56.47
2017-11-10T14:20:39.144Z,55.84
2017-11-10T14:23:05.116Z,55.93
2017-11-10T14:25:31.080Z,56.57
2017-11-10T14:27:57.092Z,56.37
2017-11-10T14:30:23.083Z,56.38
2017-11-10T14:32:49.032Z,56.71
2017-11-10T14:35:14.981Z,57.11
2017-11-10T14:37:40.925Z,57.11
2017-11-10T14:40:06.895Z,56.98
2017-11-10T14:42:32.863Z,56.93
2017-11-10T14:44:58.821Z,56.91
2017-11-10T14:47:24.769Z,56.98
2017-11-10T14:49:50.708Z,57.17
2017-11-10T14:52:16.679Z,57.32
2017-11-10T14:54:42.643Z,57.17
2017-11-10T14:57:08.660Z,57.64
2017-11-10T14:59:34.601Z,57.49
2017-11-10T15:02:00.608Z,57.29
2017-11-10T15:04:26.597Z,57.27
2017-11-10T15:06:52.577Z,57.54
2017-11-10T15:09:18.589Z,57.39
2017-11-10T15:11:44.617Z,57.20
2017-11-10T15:14:10.600Z,56.98
2017-11-10T15:16:36.561Z,57.27
2017-11-10T15:19:02.597Z,57.28
2017-11-10T15:21:28.556Z,57.18
2017-11-10T15:23:54.611Z,57.54
2017-11-10T15:26:20.542Z,57.29
2017-11-10T15:28:47.444Z,57.38
2017-11-10T15:31:13.460Z,57.65
2017-11-10T15:33:39.445Z,57.24
2017-11-10T15:36:05.384Z,56.97
2017-11-10T15:38:31.582Z,56.95
2017-11-10T15:40:57.861Z,57.07
2017-11-10T15:43:23.801Z,56.74
2017-11-10T15:45:49.739Z,56.84
2017-11-10T15:48:15.829Z,57.10
2017-11-10T15:50:41.813Z,57.04
2017-11-10T15:53:07.814Z,57.06
2017-11-10T15:55:34.204Z,56.97
2017-11-10T15:58:00.228Z,57.30
2017-11-10T16:00:26.215Z,57.11
2017-11-10T16:02:52.208Z,57.25
2017-11-10T16:05:18.221Z,57.28
2017-11-10T16:07:44.218Z,57.07
2017-11-10T16:10:10.268Z,56.77
2017-11-10T16:12:36.227Z,57.36
2017-11-10T16:15:02.310Z,57.27
2017-11-10T16:17:28.294Z,57.31
2017-11-10T16:19:54.305Z,57.79
2017-11-10T16:22:20.277Z,58.56
2017-11-10T16:24:46.221Z,59.11
2017-11-10T16:27:12.243Z,59.08
2017-11-10T16:29:38.192Z,58.90
2017-11-10T16:32:04.148Z,58.78
2017-11-10T16:34:30.090Z,59.08
2017-11-10T16:36:56.100Z,59.09
2017-11-10T16:39:24.605Z,59.22
2017-11-10T16:41:51.327Z,59.17
2017-11-10T16:44:17.283Z,59.07
2017-11-10T16:46:43.264Z,59.31
2017-11-10T16:49:09.263Z,58.66
2017-11-10T16:51:35.351Z,58.95
2017-11-10T16:54:01.411Z,59.02
2017-11-10T16:56:27.602Z,59.12
2017-11-10T16:58:53.631Z,59.30
2017-11-10T17:01:20.701Z,59.14
2017-11-10T17:03:46.692Z,58.79
2017-11-10T17:06:12.752Z,58.76
2017-11-10T17:08:38.791Z,58.85
2017-11-10T17:11:04.839Z,58.31
2017-11-10T17:13:30.938Z,58.74
2017-11-10T17:15:57.082Z,58.80
2017-11-10T17:18:23.071Z,58.73
2017-11-10T17:20:49.067Z,58.96
2017-11-10T17:23:15.020Z,59.30
2017-11-10T17:25:40.990Z,58.37
2017-11-10T17:28:06.936Z,58.07
2017-11-10T17:30:34.215Z,58.18
2017-11-10T17:33:00.170Z,58.58
2017-11-10T17:35:26.191Z,58.11
2017-11-10T17:37:52.155Z,58.60
2017-11-10T17:40:18.194Z,58.74
2017-11-10T17:42:44.232Z,59.74
2017-11-10T17:45:10.184Z,59.41
2017-11-10T17:47:36.150Z,60.38
2017-11-10T17:50:02.149Z,61.06
2017-11-10T17:52:29.476Z,60.87
2017-11-10T17:54:55.453Z,60.80
2017-11-10T17:57:21.434Z,60.41
2017-11-10T17:59:47.406Z,60.69
2017-11-10T18:02:13.388Z,60.84
2017-11-10T18:04:39.370Z,59.95
2017-11-10T18:07:05.319Z,60.20
2017-11-10T18:09:31.316Z,60.02
2017-11-10T18:11:57.358Z,59.40
2017-11-10T18:14:23.350Z,59.71
2017-11-10T18:16:49.318Z,59.65
2017-11-10T18:19:15.326Z,59.36
2017-11-10T18:21:41.294Z,59.24
2017-11-10T18:24:07.328Z,59.52
2017-11-10T18:26:33.289Z,59.22
2017-11-10T18:28:59.274Z,59.47
2017-11-10T18:31:26.163Z,58.63
2017-11-10T18:33:52.250Z,58.97
2017-11-10T18:36:18.203Z,58.49
2017-11-10T18:38:44.166Z,57.89
2017-11-10T18:41:10.151Z,57.85
2017-11-10T18:43:36.136Z,57.72
2017-11-10T18:46:02.128Z,57.86
2017-11-10T18:48:28.115Z,57.56
2017-11-10T18:50:54.086Z,57.67
2017-11-10T18:53:20.088Z,58.19
2017-11-10T18:55:46.124Z,58.25
2017-11-10T18:58:17.430Z,58.24
2017-11-10T19:00:43.409Z,58.88
2017-11-10T19:03:09.375Z,60.20
2017-11-10T19:05:35.453Z,60.99
2017-11-10T19:08:01.415Z,62.23
2017-11-10T19:10:27.387Z,63.18
2017-11-10T19:12:53.369Z,62.85
2017-11-10T19:15:19.801Z,62.38
2017-11-10T19:17:45.896Z,62.74
2017-11-10T19:20:11.857Z,62.52
2017-11-10T19:22:37.813Z,63.25
2017-11-10T19:25:03.832Z,62.88
2017-11-10T19:27:29.925Z,62.54
2017-11-10T19:29:55.901Z,63.89
2017-11-10T19:32:22.714Z,63.44
2017-11-10T19:34:48.814Z,63.99
2017-11-10T19:37:14.802Z,64.26
2017-11-10T19:39:40.799Z,65.37
2017-11-10T19:42:06.801Z,65.09
2017-11-10T19:44:32.866Z,63.91
2017-11-10T19:46:58.874Z,62.35
2017-11-10T19:49:24.888Z,62.26
2017-11-10T19:51:50.937Z,61.46
2017-11-10T19:54:17.957Z,61.48
2017-11-10T19:56:43.984Z,61.02
2017-11-10T19:59:10.069Z,61.37
2017-11-10T20:01:36.151Z,60.68
2017-11-10T20:04:02.123Z,61.04
2017-11-10T20:06:28.130Z,65.56
2017-11-10T20:08:54.108Z,64.55
2017-11-10T20:11:20.919Z,65.67
2017-11-10T20:13:46.950Z,67.63
2017-11-10T20:16:12.976Z,65.21
2017-11-10T20:18:38.949Z,64.39
2017-11-10T20:21:05.163Z,63.42
2017-11-10T20:23:31.275Z,64.12
2017-11-10T20:25:57.378Z,64.26
2017-11-10T20:28:23.572Z,64.35
2017-11-10T20:30:49.616Z,63.37
2017-11-10T20:33:15.637Z,64.16
2017-11-10T20:35:41.598Z,62.91
2017-11-10T20:38:07.630Z,62.17
2017-11-10T20:40:38.125Z,61.67
2017-11-10T20:43:04.095Z,61.53
2017-11-10T20:45:30.166Z,61.41
2017-11-10T20:47:56.533Z,60.71
2017-11-10T20:50:22.773Z,60.11
2017-11-10T20:52:49.145Z,59.71
2017-11-10T20:55:15.129Z,59.14
2017-11-10T20:57:41.219Z,60.02
2017-11-10T21:00:07.227Z,59.56
2017-11-10T21:02:33.189Z,59.49
2017-11-10T21:04:59.674Z,59.53
2017-11-10T21:07:25.864Z,59.38
2017-11-10T21:09:51.991Z,59.08
2017-11-10T21:12:18.034Z,59.67
2017-11-10T21:14:44.101Z,59.50
2017-11-10T21:17:10.102Z,59.70
2017-11-10T21:19:36.225Z,59.21
2017-11-10T21:22:02.224Z,58.81
2017-11-10T21:24:28.208Z,59.51
2017-11-10T21:26:54.590Z,59.32
2017-11-10T21:29:20.682Z,59.42
2017-11-10T21:31:46.773Z,59.19
2017-11-10T21:34:12.837Z,59.55
2017-11-10T21:36:38.846Z,58.97
2017-11-10T21:39:04.902Z,59.23
2017-11-10T21:41:30.888Z,59.50
2017-11-10T21:43:57.107Z,59.04
2017-11-10T21:46:23.201Z,59.21
2017-11-10T21:48:50.143Z,59.28
2017-11-10T21:51:16.189Z,59.60
2017-11-10T21:53:42.273Z,59.38
2017-11-10T21:56:08.541Z,59.39
2017-11-10T21:58:34.556Z,59.42
2017-11-10T22:01:00.531Z,59.33
2017-11-10T22:03:26.490Z,59.29
2017-11-10T22:05:52.481Z,59.70
2017-11-10T22:08:18.484Z,60.12
2017-11-10T22:10:44.474Z,59.70
2017-11-10T22:13:10.482Z,60.36
2017-11-10T22:15:36.479Z,60.49
2017-11-10T22:18:02.492Z,60.97
2017-11-10T22:20:28.443Z,60.27
2017-11-10T22:22:54.624Z,60.39
2017-11-10T22:25:20.607Z,60.44
2017-11-10T22:27:46.601Z,60.29
2017-11-10T22:30:12.564Z,60.48
2017-11-10T22:32:38.756Z,61.25
2017-11-10T22:35:07.640Z,60.70
2017-11-10T22:37:33.829Z,61.01
2017-11-10T22:39:59.816Z,60.83
2017-11-10T22:42:25.783Z,60.68
2017-11-10T22:44:51.960Z,60.60
2017-11-10T22:47:18.062Z,60.91
2017-11-10T22:49:44.027Z,60.68
2017-11-10T22:52:10.034Z,60.52
2017-11-10T22:54:36.030Z,60.12
2017-11-10T22:57:02.074Z,60.20
2017-11-10T22:59:28.027Z,60.27
2017-11-10T23:01:53.994Z,60.16
2017-11-10T23:04:19.996Z,60.06
2017-11-10T23:06:46.083Z,60.24
2017-11-10T23:09:12.039Z,60.52
2017-11-10T23:11:38.030Z,61.10
2017-11-10T23:14:04.025Z,61.77
2017-11-10T23:16:29.986Z,61.71
2017-11-10T23:18:55.933Z,62.36
2017-11-10T23:21:21.933Z,62.41
2017-11-10T23:23:47.878Z,61.97
2017-11-10T23:26:13.923Z,62.25
2017-11-10T23:28:39.872Z,62.17
2017-11-10T23:31:05.851Z,62.26
2017-11-10T23:33:31.831Z,61.57
2017-11-10T23:35:57.792Z,61.06
2017-11-10T23:38:23.761Z,60.83
2017-11-10T23:40:49.719Z,60.65
2017-11-10T23:43:15.837Z,60.49
2017-11-10T23:45:41.798Z,60.48
2017-11-10T23:48:07.772Z,60.44
2017-11-10T23:50:33.768Z,60.20
2017-11-10T23:52:59.728Z,60.40
2017-11-10T23:55:25.726Z,60.75
2017-11-10T23:57:51.784Z,60.57
